createdAt,value
2022-12-31T00:00:17.801Z,1001.281207
2022-12-31T00:05:17.918Z,1001.421946
2022-12-31T00:10:16.346Z,1001.502516
2022-12-31T00:15:15.817Z,1001.483777
2022-12-31T00:20:16.721Z,1001.405259
2022-12-31T00:25:16.066Z,1001.586381
2022-12-31T00:30:18.115Z,1001.385899
2022-12-31T00:35:18.116Z,1001.504809
2022-12-31T00:40:15.823Z,1001.644320
2022-12-31T00:45:16.427Z,1001.505389
2022-12-31T00:50:16.177Z,1001.523284
2022-12-31T00:55:16.218Z,1001.522327
2022-12-31T01:00:16.477Z,1001.601783
2022-12-31T01:05:16.356Z,1001.620509
2022-12-31T01:10:15.947Z,1001.699288
2022-12-31T01:15:15.697Z,1001.697973
2022-12-31T01:20:16.833Z,1001.657860
2022-12-31T01:25:16.953Z,1001.637758
2022-12-31T01:30:16.974Z,1001.658000
2022-12-31T01:35:16.031Z,1001.677977
2022-12-31T01:40:16.040Z,1001.697873
2022-12-31T01:45:16.319Z,1001.837749
2022-12-31T01:50:15.643Z,1001.879702
2022-12-31T01:55:15.985Z,1001.864010
2022-12-31T02:00:15.804Z,1001.786208
2022-12-31T02:05:16.977Z,1001.826305
2022-12-31T02:10:15.899Z,1001.765677
2022-12-31T02:15:15.624Z,1001.605528
2022-12-31T02:20:17.475Z,1001.604184
2022-12-31T02:25:17.481Z,1001.603736
2022-12-31T02:30:16.373Z,1001.644246
2022-12-31T02:35:16.195Z,1001.705308
2022-12-31T02:40:15.830Z,1001.705425
2022-12-31T02:45:16.325Z,1001.865751
2022-12-31T02:50:15.953Z,1001.886355
2022-12-31T02:55:15.582Z,1001.926534
2022-12-31T03:00:16.450Z,1002.027538
2022-12-31T03:05:17.775Z,1002.128359
2022-12-31T03:10:16.456Z,1002.048632
2022-12-31T03:15:18.816Z,1002.148401
2022-12-31T03:20:17.700Z,1002.228404
2022-12-31T03:25:16.162Z,1002.369248
2022-12-31T03:30:16.962Z,1002.409426
2022-12-31T03:35:16.911Z,1002.389006
2022-12-31T03:40:16.302Z,1002.348203
2022-12-31T03:45:15.889Z,1002.367552
2022-12-31T03:50:15.842Z,1002.347448
2022-12-31T03:55:16.833Z,1002.347437
2022-12-31T04:00:17.278Z,1002.307403
2022-12-31T04:05:15.903Z,1002.307403
2022-12-31T04:10:16.106Z,1002.287386
2022-12-31T04:15:16.667Z,1002.287988
2022-12-31T04:20:17.001Z,1002.288544
2022-12-31T04:25:16.144Z,1002.328788
2022-12-31T04:30:16.252Z,1002.308947
2022-12-31T04:35:16.490Z,1002.409559
2022-12-31T04:40:16.166Z,1002.389374
2022-12-31T04:45:15.921Z,1002.489857
2022-12-31T04:50:16.978Z,1002.629815
2022-12-31T04:55:16.481Z,1002.669784
2022-12-31T05:00:16.072Z,1002.709946
2022-12-31T05:05:16.544Z,1002.690539
2022-12-31T05:10:16.548Z,1002.770309
2022-12-31T05:15:17.319Z,1002.929885
2022-12-31T05:20:15.999Z,1003.009849
2022-12-31T05:25:16.498Z,1003.029467
2022-12-31T05:30:16.405Z,1003.009728
2022-12-31T05:35:17.266Z,1003.230469
2022-12-31T05:40:16.102Z,1003.270421
2022-12-31T05:45:16.061Z,1003.330576
2022-12-31T05:50:16.592Z,1003.390690
2022-12-31T05:55:16.019Z,1003.450909
2022-12-31T06:00:16.139Z,1003.531799
2022-12-31T06:05:19.722Z,1003.532466
2022-12-31T06:10:16.179Z,1003.532635
2022-12-31T06:15:16.568Z,1003.573058
2022-12-31T06:20:17.336Z,1003.613016
2022-12-31T06:25:16.453Z,1003.693321
2022-12-31T06:30:17.547Z,1003.753439
2022-12-31T06:35:17.068Z,1003.793738
2022-12-31T06:40:16.382Z,1003.874106
2022-12-31T06:45:15.945Z,1003.974334
2022-12-31T06:50:17.851Z,1004.014467
2022-12-31T06:55:16.117Z,1004.013844
2022-12-31T07:00:16.203Z,1004.174478
2022-12-31T07:05:15.826Z,1004.235046
2022-12-31T07:10:17.937Z,1004.335252
2022-12-31T07:15:16.237Z,1004.515687
2022-12-31T07:20:16.527Z,1004.475885
2022-12-31T07:25:15.730Z,1004.416186
2022-12-31T07:30:16.856Z,1004.516526
2022-12-31T07:35:16.609Z,1004.556699
2022-12-31T07:40:16.278Z,1004.636783
2022-12-31T07:45:16.463Z,1004.676506
2022-12-31T07:50:16.074Z,1004.755950
2022-12-31T07:55:16.666Z,1004.815631
2022-12-31T08:00:19.480Z,1004.815798
2022-12-31T08:05:17.669Z,1004.815789
2022-12-31T08:10:18.240Z,1004.916000
2022-12-31T08:15:17.869Z,1004.955899
2022-12-31T08:20:15.917Z,1004.935847
2022-12-31T08:25:15.818Z,1004.935788
2022-12-31T08:30:15.729Z,1005.016065
2022-12-31T08:35:16.782Z,1005.016278
2022-12-31T08:40:15.658Z,1005.176474
2022-12-31T08:45:16.521Z,1005.176320
2022-12-31T08:50:16.582Z,1005.296654
2022-12-31T08:55:16.404Z,1005.217108
2022-12-31T09:00:17.506Z,1005.197239
2022-12-31T09:05:15.659Z,1005.277399
2022-12-31T09:10:16.384Z,1005.337296
2022-12-31T09:15:15.903Z,1005.357442
2022-12-31T09:20:16.613Z,1005.457155
2022-12-31T09:25:15.793Z,1005.497407
2022-12-31T09:30:17.185Z,1005.517919
2022-12-31T09:35:22.286Z,1005.517949
2022-12-31T09:40:16.164Z,1005.538225
2022-12-31T09:45:17.745Z,1005.518758
2022-12-31T09:50:16.288Z,1005.519335
2022-12-31T09:55:16.408Z,1005.559683
2022-12-31T10:00:17.785Z,1005.719666
2022-12-31T10:05:17.215Z,1005.779193
2022-12-31T10:10:17.016Z,1005.878880
2022-12-31T10:15:23.461Z,1005.919050
2022-12-31T10:20:15.761Z,1006.019879
2022-12-31T10:25:17.193Z,1006.100193
2022-12-31T10:30:22.237Z,1006.080429
2022-12-31T10:35:17.846Z,1006.140852
2022-12-31T10:40:16.374Z,1006.261514
2022-12-31T10:45:16.795Z,1006.421817
2022-12-31T10:50:17.263Z,1006.381698
2022-12-31T10:55:16.992Z,1006.421896
2022-12-31T11:00:17.643Z,1006.522278
2022-12-31T11:05:16.848Z,1006.562793
2022-12-31T11:10:18.544Z,1006.622977
2022-12-31T11:15:16.066Z,1006.663046
2022-12-31T11:20:17.579Z,1006.763524
2022-12-31T11:25:26.462Z,1006.803706
2022-12-31T11:30:18.401Z,1006.983159
2022-12-31T11:35:16.419Z,1007.163147
2022-12-31T11:40:16.589Z,1007.182066
2022-12-31T11:45:15.756Z,1007.260292
2022-12-31T11:50:16.209Z,1007.301814
2022-12-31T11:55:17.213Z,1007.422527
2022-12-31T12:00:16.670Z,1007.502767
2022-12-31T12:05:17.352Z,1007.562765
2022-12-31T12:10:21.716Z,1007.643070
2022-12-31T12:15:17.959Z,1007.703835
2022-12-31T12:20:17.082Z,1007.823416
2022-12-31T12:25:17.229Z,1007.884371
2022-12-31T12:30:17.098Z,1007.964219
2022-12-31T12:35:15.478Z,1008.084589
2022-12-31T12:40:16.793Z,1008.204911
2022-12-31T12:45:16.825Z,1008.285739
2022-12-31T12:50:17.083Z,1008.326039
2022-12-31T12:55:16.118Z,1008.344805
2022-12-31T13:00:18.383Z,1008.323382
2022-12-31T13:05:16.391Z,1008.344542
2022-12-31T13:10:17.044Z,1008.365069
2022-12-31T13:15:19.395Z,1008.424895
2022-12-31T13:20:17.210Z,1008.486164
2022-12-31T13:25:18.375Z,1008.586454
2022-12-31T13:30:16.198Z,1008.665983
2022-12-31T13:35:17.319Z,1008.724822
2022-12-31T13:40:17.273Z,1008.785051
2022-12-31T13:45:16.285Z,1008.804222
2022-12-31T13:50:17.278Z,1008.845268
2022-12-31T13:55:15.985Z,1008.886614
2022-12-31T14:00:17.369Z,1008.966982
2022-12-31T14:05:16.577Z,1008.987053
2022-12-31T14:10:16.722Z,1008.948056
2022-12-31T14:15:19.427Z,1009.008406
2022-12-31T14:20:17.904Z,1009.027909
2022-12-31T14:25:16.651Z,1009.088112
2022-12-31T14:30:16.270Z,1009.169337
2022-12-31T14:35:17.193Z,1009.149465
2022-12-31T14:40:16.437Z,1009.209867
2022-12-31T14:45:17.031Z,1009.170272
2022-12-31T14:50:16.907Z,1009.190328
2022-12-31T14:55:16.971Z,1009.130663
2022-12-31T15:00:16.280Z,1009.090539
2022-12-31T15:05:18.364Z,1009.070815
2022-12-31T15:10:16.282Z,1009.231107
2022-12-31T15:15:16.547Z,1009.210850
2022-12-31T15:20:18.160Z,1009.370855
2022-12-31T15:25:17.394Z,1009.510792
2022-12-31T15:30:17.422Z,1009.591726
2022-12-31T15:35:16.739Z,1009.632982
2022-12-31T15:40:16.076Z,1009.713930
2022-12-31T15:45:16.824Z,1009.694073
2022-12-31T15:50:16.929Z,1009.714119
2022-12-31T15:55:18.314Z,1009.734165
2022-12-31T16:00:17.322Z,1009.754211
2022-12-31T16:05:17.168Z,1009.774257
2022-12-31T16:10:15.700Z,1009.854441
2022-12-31T16:15:18.010Z,1009.894533
2022-12-31T16:20:21.646Z,1009.994680
2022-12-31T16:25:32.867Z,1010.034375
2022-12-31T16:30:17.407Z,1010.054823
2022-12-31T16:35:23.016Z,1010.074946
2022-12-31T16:40:15.986Z,1010.074946
2022-12-31T16:45:16.636Z,1010.094992
2022-12-31T16:50:16.067Z,1010.215268
2022-12-31T16:55:16.700Z,1010.255360
2022-12-31T17:00:16.190Z,1010.355590
2022-12-31T17:05:18.225Z,1010.375635
2022-12-31T17:10:18.938Z,1010.515957
2022-12-31T17:15:18.362Z,1010.655623
2022-12-31T17:20:16.391Z,1010.695014
2022-12-31T17:25:16.684Z,1010.734689
2022-12-31T17:30:16.318Z,1010.834078
2022-12-31T17:35:16.484Z,1010.913123
2022-12-31T17:40:49.808Z,1010.993738
2022-12-31T17:45:16.171Z,1011.053652
2022-12-31T17:50:17.545Z,1011.194421
2022-12-31T17:55:17.162Z,1011.313721
2022-12-31T18:00:16.765Z,1011.313709
2022-12-31T18:05:17.167Z,1011.454423
2022-12-31T18:10:16.168Z,1011.555568
2022-12-31T18:15:21.174Z,1011.655994
2022-12-31T18:20:15.856Z,1011.776886
2022-12-31T18:25:16.304Z,1011.836874
2022-12-31T18:30:16.558Z,1011.896079
2022-12-31T18:35:33.318Z,1011.936079
2022-12-31T18:40:16.663Z,1012.116650
2022-12-31T18:45:17.143Z,1012.174993
2022-12-31T18:50:17.378Z,1012.236418
2022-12-31T18:55:16.390Z,1012.136341
2022-12-31T19:00:16.818Z,1012.175711
2022-12-31T19:05:18.803Z,1012.175499
2022-12-31T19:10:17.292Z,1012.173853
2022-12-31T19:15:16.661Z,1012.274184
2022-12-31T19:20:17.855Z,1012.254051
2022-12-31T19:25:15.827Z,1012.234594
2022-12-31T19:30:16.243Z,1012.274966
2022-12-31T19:35:16.716Z,1012.311404
2022-12-31T19:40:16.497Z,1012.370817
2022-12-31T19:45:16.151Z,1012.351921
2022-12-31T19:50:16.504Z,1012.332408
2022-12-31T19:55:17.636Z,1012.410657
2022-12-31T20:00:16.504Z,1012.390135
2022-12-31T20:05:18.354Z,1012.431422
2022-12-31T20:10:18.944Z,1012.490573
2022-12-31T20:15:16.467Z,1012.530769
2022-12-31T20:20:17.137Z,1012.510647
2022-12-31T20:25:16.173Z,1012.548827
2022-12-31T20:30:16.107Z,1012.546455
2022-12-31T20:35:16.557Z,1012.547238
2022-12-31T20:40:22.191Z,1012.549541
2022-12-31T20:45:16.424Z,1012.566757
2022-12-31T20:50:17.711Z,1012.507298
2022-12-31T20:55:15.730Z,1012.588757
2022-12-31T21:00:15.765Z,1012.546746
2022-12-31T21:05:16.177Z,1012.549681
2022-12-31T21:10:16.711Z,1012.530979
2022-12-31T21:15:17.572Z,1012.591029
2022-12-31T21:20:16.837Z,1012.610174
2022-12-31T21:25:15.641Z,1012.648721
2022-12-31T21:30:19.385Z,1012.687043
2022-12-31T21:36:04.237Z,1012.706181
2022-12-31T21:40:18.217Z,1012.704018
2022-12-31T21:45:17.111Z,1012.723034
2022-12-31T21:50:15.598Z,1012.682046
2022-12-31T21:55:16.177Z,1012.763594
2022-12-31T22:00:41.144Z,1012.822306
2022-12-31T22:05:21.601Z,1012.803245
2022-12-31T22:10:16.153Z,1012.866793
2022-12-31T22:15:18.329Z,1012.907588
2022-12-31T22:20:27.213Z,1012.825846
2022-12-31T22:25:16.543Z,1012.885439
2022-12-31T22:30:17.220Z,1012.924512
2022-12-31T22:35:16.416Z,1012.945242
2022-12-31T22:40:17.160Z,1012.986186
2022-12-31T22:45:15.591Z,1013.045863
2022-12-31T22:50:22.281Z,1013.167157
2022-12-31T22:55:18.853Z,1013.107427
2022-12-31T23:00:16.892Z,1013.146669
2022-12-31T23:05:17.433Z,1013.327584
2022-12-31T23:10:16.952Z,1013.486649
2022-12-31T23:15:17.578Z,1013.506913
2022-12-31T23:20:17.292Z,1013.506563
2022-12-31T23:25:16.481Z,1013.567392
2022-12-31T23:30:16.568Z,1013.666457
2022-12-31T23:35:17.686Z,1013.767241
2022-12-31T23:40:21.222Z,1013.866198
2022-12-31T23:45:16.619Z,1013.845396
2022-12-31T23:50:17.231Z,1013.845351
2022-12-31T23:55:16.241Z,1013.925730
